createdAt,value
2022-08-03T00:01:41.643Z,12.30
2022-08-03T00:04:40.426Z,14.30
2022-08-03T00:07:51.198Z,12.40
2022-08-03T00:11:00.335Z,15.20
2022-08-03T00:13:49.525Z,13.50
2022-08-03T00:16:33.413Z,10.30
2022-08-03T00:19:33.600Z,13.30
2022-08-03T00:22:18.984Z,11.50
2022-08-03T00:25:12.842Z,13.80
2022-08-03T00:28:02.618Z,16.50
2022-08-03T00:30:51.320Z,15.60
2022-08-03T00:34:04.485Z,13.40
2022-08-03T00:36:50.307Z,13.10
2022-08-03T00:39:35.883Z,11.70
2022-08-03T00:42:28.592Z,11.90
2022-08-03T00:45:17.200Z,12.50
2022-08-03T00:48:33.053Z,10.60
2022-08-03T00:51:37.410Z,16.80
2022-08-03T00:54:25.364Z,17.20
2022-08-03T00:57:13.548Z,11.90
2022-08-03T01:00:39.016Z,13.10
2022-08-03T01:03:46.373Z,11.50
2022-08-03T01:06:59.719Z,10.90
2022-08-03T01:10:00.750Z,13.70
2022-08-03T01:14:01.421Z,12.20
2022-08-03T01:17:03.078Z,13.90
2022-08-03T01:20:14.857Z,13.30
2022-08-03T01:23:44.507Z,10.60
2022-08-03T01:26:59.803Z,15.40
2022-08-03T01:30:05.981Z,14.30
2022-08-03T01:36:07.954Z,12.90
2022-08-03T01:39:27.469Z,9.20
2022-08-03T01:42:29.916Z,13.60
2022-08-03T01:45:17.947Z,15.80
2022-08-03T01:48:10.819Z,15.30
2022-08-03T01:51:09.695Z,16.50
2022-08-03T01:54:16.405Z,12.60
2022-08-03T01:57:19.924Z,11.90
2022-08-03T02:00:23.152Z,14.70
2022-08-03T02:03:38.524Z,13.10
2022-08-03T02:07:09.027Z,14.60
2022-08-03T02:10:16.417Z,12.30
2022-08-03T02:13:33.542Z,12.80
2022-08-03T02:16:42.705Z,13.20
2022-08-03T02:19:56.125Z,11.30
2022-08-03T02:23:17.236Z,13.50
2022-08-03T02:27:10.004Z,12.40
2022-08-03T02:30:16.226Z,16.20
2022-08-03T02:34:08.680Z,12.90
2022-08-03T02:37:52.846Z,14.80
2022-08-03T02:41:08.554Z,13.50
2022-08-03T02:44:32.746Z,16.40
2022-08-03T02:47:53.329Z,13.90
2022-08-03T02:51:23.387Z,13.80
2022-08-03T02:54:32.813Z,13.90
2022-08-03T02:58:06.672Z,14.60
2022-08-03T03:01:03.219Z,14.00
2022-08-03T03:04:03.110Z,19.30
2022-08-03T03:07:16.902Z,13.60
2022-08-03T03:10:22.384Z,12.40
2022-08-03T03:13:09.900Z,17.80
2022-08-03T03:15:59.229Z,17.70
2022-08-03T03:19:05.477Z,14.10
2022-08-03T03:21:52.413Z,13.90
2022-08-03T03:24:58.098Z,15.00
2022-08-03T03:27:49.471Z,14.80
2022-08-03T03:30:37.622Z,14.10
2022-08-03T03:33:24.156Z,17.90
2022-08-03T03:36:15.384Z,15.90
2022-08-03T03:39:15.079Z,15.20
2022-08-03T03:42:02.852Z,16.20
2022-08-03T03:44:50.963Z,13.00
2022-08-03T03:47:42.909Z,12.30
2022-08-03T03:50:46.775Z,16.90
2022-08-03T03:53:37.815Z,13.20
2022-08-03T03:56:27.541Z,18.90
2022-08-03T03:59:14.489Z,18.50
2022-08-03T04:02:14.890Z,17.30
2022-08-03T04:05:16.768Z,13.30
2022-08-03T04:08:36.936Z,16.50
2022-08-03T04:11:31.781Z,15.50
2022-08-03T04:14:32.922Z,17.80
2022-08-03T04:17:31.261Z,13.10
2022-08-03T04:20:21.771Z,16.00
2022-08-03T04:23:15.411Z,12.40
2022-08-03T04:26:30.318Z,15.60
2022-08-03T04:29:26.427Z,15.20
2022-08-03T04:32:14.662Z,12.50
2022-08-03T04:35:07.873Z,15.60
2022-08-03T04:38:00.655Z,15.90
2022-08-03T04:40:46.225Z,16.20
2022-08-03T04:43:31.480Z,11.40
2022-08-03T04:46:15.626Z,10.90
2022-08-03T04:49:07.016Z,11.00
2022-08-03T04:51:51.091Z,14.90
2022-08-03T04:54:48.843Z,13.00
2022-08-03T04:57:34.156Z,10.60
2022-08-03T05:00:23.821Z,9.40
2022-08-03T05:03:20.490Z,14.10
2022-08-03T05:06:12.772Z,14.80
2022-08-03T05:09:02.508Z,11.60
2022-08-03T05:11:50.204Z,14.40
2022-08-03T05:14:43.163Z,14.00
2022-08-03T05:17:26.093Z,15.40
2022-08-03T05:20:12.623Z,13.60
2022-08-03T05:22:56.121Z,14.00
2022-08-03T05:25:39.344Z,11.70
2022-08-03T05:28:23.132Z,11.60
2022-08-03T05:31:06.072Z,10.70
2022-08-03T05:33:49.409Z,12.40
2022-08-03T05:36:34.768Z,12.40
2022-08-03T05:39:18.008Z,13.00
2022-08-03T05:42:01.392Z,9.10
2022-08-03T05:44:44.460Z,12.60
2022-08-03T05:47:30.495Z,8.70
2022-08-03T05:50:14.775Z,12.60
2022-08-03T05:52:58.009Z,14.20
2022-08-03T05:55:41.157Z,13.50
2022-08-03T05:58:24.425Z,12.40
2022-08-03T06:01:13.333Z,11.80
2022-08-03T06:03:57.331Z,20.60
2022-08-03T06:06:40.658Z,17.40
2022-08-03T06:09:23.795Z,20.30
2022-08-03T06:12:26.875Z,14.60
2022-08-03T06:15:11.334Z,9.20
2022-08-03T06:18:01.796Z,14.80
2022-08-03T06:20:45.561Z,17.70
2022-08-03T06:23:52.632Z,9.30
2022-08-03T06:26:35.856Z,11.20
2022-08-03T06:29:21.754Z,7.60
2022-08-03T06:32:07.374Z,9.80
2022-08-03T06:34:53.216Z,9.90
2022-08-03T06:37:47.318Z,8.80
2022-08-03T06:40:34.244Z,8.80
2022-08-03T06:43:17.693Z,10.50
2022-08-03T06:46:00.625Z,14.80
2022-08-03T06:48:47.071Z,9.30
2022-08-03T06:52:05.950Z,14.80
2022-08-03T06:54:35.701Z,6.20
2022-08-03T06:57:19.233Z,11.90
2022-08-03T07:00:07.447Z,10.20
2022-08-03T07:02:58.088Z,10.60
2022-08-03T07:05:42.822Z,22.00
2022-08-03T07:08:33.698Z,9.70
2022-08-03T07:11:17.656Z,10.40
2022-08-03T07:14:00.725Z,12.70
2022-08-03T07:16:43.741Z,8.40
2022-08-03T07:19:26.938Z,9.30
2022-08-03T07:22:11.165Z,12.80
2022-08-03T07:24:54.228Z,9.30
2022-08-03T07:27:41.434Z,7.40
2022-08-03T07:30:24.632Z,8.00
2022-08-03T07:33:07.748Z,11.50
2022-08-03T07:35:51.053Z,9.30
2022-08-03T07:38:37.062Z,8.50
2022-08-03T07:41:20.001Z,9.00
2022-08-03T07:44:03.384Z,7.20
2022-08-03T07:46:46.506Z,10.30
2022-08-03T07:49:29.769Z,8.00
2022-08-03T07:52:31.434Z,9.40
2022-08-03T07:55:15.849Z,7.70
2022-08-03T07:58:04.310Z,5.30
2022-08-03T08:00:47.730Z,7.70
2022-08-03T08:03:41.995Z,6.80
2022-08-03T08:06:34.107Z,7.80
2022-08-03T08:09:17.168Z,7.10
2022-08-03T08:12:00.281Z,7.10
2022-08-03T08:14:45.994Z,5.00
2022-08-03T08:17:29.451Z,4.60
2022-08-03T08:20:18.903Z,6.60
2022-08-03T08:23:42.050Z,6.20
2022-08-03T08:26:17.882Z,6.60
2022-08-03T08:29:00.921Z,7.50
2022-08-03T08:31:43.895Z,5.60
2022-08-03T08:34:26.928Z,5.30
2022-08-03T08:37:09.786Z,8.40
2022-08-03T08:39:52.703Z,7.00
2022-08-03T08:42:40.290Z,8.30
2022-08-03T08:45:28.091Z,4.10
2022-08-03T08:48:13.355Z,3.90
2022-08-03T08:50:57.439Z,4.00
2022-08-03T08:53:44.433Z,6.40
2022-08-03T08:56:28.277Z,4.80
2022-08-03T08:59:11.618Z,8.70
2022-08-03T09:01:57.973Z,4.20
2022-08-03T09:04:42.444Z,5.00
2022-08-03T09:07:25.288Z,4.50
2022-08-03T09:10:13.042Z,6.50
2022-08-03T09:12:56.538Z,3.00
2022-08-03T09:15:39.603Z,8.20
2022-08-03T09:18:32.859Z,6.70
2022-08-03T09:21:32.831Z,9.20
2022-08-03T09:24:40.790Z,5.30
2022-08-03T09:27:26.117Z,10.40
2022-08-03T09:30:33.311Z,5.10
2022-08-03T09:33:18.086Z,5.10
2022-08-03T09:36:01.004Z,5.40
2022-08-03T09:39:02.990Z,5.60
2022-08-03T09:41:48.958Z,5.90
2022-08-03T09:44:43.080Z,5.60
2022-08-03T09:47:31.643Z,6.70
2022-08-03T09:50:14.611Z,4.00
2022-08-03T09:53:02.286Z,5.80
2022-08-03T09:56:35.117Z,6.90
2022-08-03T09:59:05.103Z,5.90
2022-08-03T10:01:48.604Z,4.90
2022-08-03T10:04:34.043Z,9.00
2022-08-03T10:07:17.195Z,12.40
2022-08-03T10:10:30.165Z,9.90
2022-08-03T10:13:05.570Z,7.50
2022-08-03T10:16:23.783Z,7.80
2022-08-03T10:18:51.856Z,5.00
2022-08-03T10:21:38.807Z,5.30
2022-08-03T10:24:27.676Z,4.90
2022-08-03T10:27:13.800Z,5.60
2022-08-03T10:30:01.080Z,5.50
2022-08-03T10:32:57.692Z,9.20
2022-08-03T10:36:05.398Z,3.50
2022-08-03T10:38:53.864Z,4.40
2022-08-03T10:41:45.080Z,5.00
2022-08-03T10:44:33.901Z,3.90
2022-08-03T10:47:17.143Z,5.00
2022-08-03T10:50:02.146Z,15.40
2022-08-03T10:52:56.095Z,4.30
2022-08-03T10:56:04.244Z,8.00
2022-08-03T10:58:57.477Z,5.20
2022-08-03T11:01:59.300Z,9.30
2022-08-03T11:04:47.437Z,7.80
2022-08-03T11:07:32.998Z,8.20
2022-08-03T11:10:32.114Z,4.30
2022-08-03T11:13:17.789Z,2.70
2022-08-03T11:16:06.684Z,7.90
2022-08-03T11:19:00.669Z,7.40
2022-08-03T11:21:53.543Z,3.30
2022-08-03T11:24:57.703Z,12.80
2022-08-03T11:27:40.654Z,3.90
2022-08-03T11:30:29.962Z,8.70
2022-08-03T11:33:31.809Z,3.70
2022-08-03T11:36:31.914Z,3.60
2022-08-03T11:39:17.268Z,3.20
2022-08-03T11:42:00.137Z,6.00
2022-08-03T11:44:47.461Z,4.70
2022-08-03T11:47:30.659Z,5.00
2022-08-03T11:50:13.619Z,5.20
2022-08-03T11:52:56.578Z,3.40
2022-08-03T11:55:43.296Z,9.00
2022-08-03T11:58:58.315Z,6.30
2022-08-03T12:01:31.763Z,4.20
2022-08-03T12:04:17.003Z,7.30
2022-08-03T12:07:01.585Z,2.90
2022-08-03T12:10:03.943Z,3.10
2022-08-03T12:12:58.689Z,3.60
2022-08-03T12:15:42.245Z,3.80
2022-08-03T12:18:25.787Z,2.80
2022-08-03T12:21:10.739Z,3.70
2022-08-03T12:24:02.620Z,2.60
2022-08-03T12:26:58.323Z,5.60
2022-08-03T12:29:42.227Z,6.40
2022-08-03T12:32:39.906Z,3.20
2022-08-03T12:35:26.950Z,3.80
2022-08-03T12:38:12.937Z,3.70
2022-08-03T12:41:04.329Z,7.50
2022-08-03T12:43:51.356Z,3.50
2022-08-03T12:46:35.769Z,2.90
2022-08-03T12:49:19.730Z,3.00
2022-08-03T12:52:07.361Z,4.40
2022-08-03T12:54:59.041Z,4.40
2022-08-03T12:57:43.032Z,6.70
2022-08-03T13:00:29.061Z,5.00
2022-08-03T13:03:42.107Z,6.90
2022-08-03T13:06:17.699Z,8.50
2022-08-03T13:09:07.828Z,4.80
2022-08-03T13:12:08.313Z,3.30
2022-08-03T13:14:56.454Z,5.10
2022-08-03T13:17:39.529Z,6.30
2022-08-03T13:20:23.777Z,5.20
2022-08-03T13:23:10.110Z,4.70
2022-08-03T13:25:58.490Z,4.90
2022-08-03T13:28:41.905Z,5.80
2022-08-03T13:31:25.891Z,6.70
2022-08-03T13:34:08.743Z,8.00
2022-08-03T13:37:08.981Z,5.80
2022-08-03T13:39:59.546Z,3.90
2022-08-03T13:42:43.613Z,3.70
2022-08-03T13:45:27.665Z,2.60
2022-08-03T13:48:12.961Z,6.20
2022-08-03T13:50:55.916Z,5.00
2022-08-03T13:53:38.917Z,3.80
2022-08-03T13:56:21.836Z,5.30
2022-08-03T13:59:04.874Z,5.50
2022-08-03T14:01:55.268Z,3.30
2022-08-03T14:04:38.773Z,4.60
2022-08-03T14:07:21.863Z,4.90
2022-08-03T14:10:05.391Z,5.90
2022-08-03T14:12:48.378Z,6.40
2022-08-03T14:15:38.259Z,4.00
2022-08-03T14:18:28.704Z,4.50
2022-08-03T14:21:16.569Z,2.30
2022-08-03T14:23:59.606Z,2.90
2022-08-03T14:26:42.879Z,3.00
2022-08-03T14:29:25.873Z,3.60
2022-08-03T14:32:12.913Z,6.00
2022-08-03T14:34:56.726Z,2.50
2022-08-03T14:37:42.503Z,8.30
2022-08-03T14:40:28.978Z,4.90
2022-08-03T14:43:15.043Z,6.90
2022-08-03T14:45:58.298Z,8.70
2022-08-03T14:50:34.938Z,13.50
2022-08-03T14:51:51.313Z,6.20
2022-08-03T14:54:38.957Z,11.60
2022-08-03T14:57:24.261Z,3.70
2022-08-03T15:00:08.392Z,6.40
2022-08-03T15:02:51.380Z,5.20
2022-08-03T15:05:34.635Z,4.10
2022-08-03T15:08:18.715Z,8.60
2022-08-03T15:11:01.668Z,4.70
2022-08-03T15:13:51.030Z,5.10
2022-08-03T15:16:33.861Z,7.10
2022-08-03T15:20:01.030Z,3.50
2022-08-03T15:22:24.930Z,4.10
2022-08-03T15:26:31.582Z,6.50
2022-08-03T15:28:11.845Z,5.70
2022-08-03T15:30:54.801Z,6.80
2022-08-03T15:33:37.707Z,5.10
2022-08-03T15:36:21.428Z,4.60
2022-08-03T15:39:06.296Z,4.30
2022-08-03T15:41:49.198Z,4.30
2022-08-03T15:44:32.318Z,5.30
2022-08-03T15:47:16.301Z,7.80
2022-08-03T15:49:59.207Z,4.10
2022-08-03T15:52:42.138Z,7.10
2022-08-03T15:55:25.232Z,4.20
2022-08-03T15:59:09.357Z,4.20
2022-08-03T16:01:14.346Z,6.30
2022-08-03T16:04:00.766Z,7.50
2022-08-03T16:06:43.649Z,12.90
2022-08-03T16:09:43.482Z,13.80
2022-08-03T16:12:27.308Z,7.40
2022-08-03T16:15:11.933Z,3.10
2022-08-03T16:17:54.918Z,5.40
2022-08-03T16:20:37.789Z,4.50
2022-08-03T16:23:25.308Z,4.50
2022-08-03T16:26:13.362Z,4.40
2022-08-03T16:28:56.404Z,5.80
2022-08-03T16:31:39.661Z,6.20
2022-08-03T16:34:38.578Z,4.70
2022-08-03T16:37:38.662Z,3.60
2022-08-03T16:40:22.342Z,12.60
2022-08-03T16:43:17.885Z,5.00
2022-08-03T16:46:01.963Z,10.10
2022-08-03T16:48:44.909Z,10.90
2022-08-03T16:51:27.968Z,14.00
2022-08-03T16:54:23.493Z,11.90
2022-08-03T16:57:11.050Z,14.60
2022-08-03T16:59:54.931Z,8.90
2022-08-03T17:02:40.307Z,9.20
2022-08-03T17:05:32.604Z,8.80
2022-08-03T17:08:30.040Z,11.20
2022-08-03T17:11:13.272Z,6.30
2022-08-03T17:13:58.700Z,8.80
2022-08-03T17:16:52.678Z,9.00
2022-08-03T17:19:40.847Z,4.40
2022-08-03T17:22:34.829Z,4.60
2022-08-03T17:25:22.153Z,6.10
2022-08-03T17:28:48.490Z,7.70
2022-08-03T17:31:31.312Z,10.30
2022-08-03T17:34:16.065Z,5.70
2022-08-03T17:37:04.478Z,7.00
2022-08-03T17:39:58.877Z,7.10
2022-08-03T17:42:43.286Z,6.30
2022-08-03T17:45:52.217Z,10.40
2022-08-03T17:48:35.499Z,9.60
2022-08-03T17:51:33.715Z,9.40
2022-08-03T17:54:23.086Z,8.20
2022-08-03T17:57:22.463Z,6.40
2022-08-03T18:00:32.287Z,9.00
2022-08-03T18:03:56.957Z,6.00
2022-08-03T18:06:55.795Z,8.70
2022-08-03T18:10:04.461Z,10.70
2022-08-03T18:13:04.241Z,7.90
2022-08-03T18:16:01.563Z,8.10
2022-08-03T18:18:54.834Z,6.30
2022-08-03T18:22:03.107Z,8.00
2022-08-03T18:24:46.781Z,7.90
2022-08-03T18:27:45.432Z,13.90
2022-08-03T18:30:34.555Z,11.60
2022-08-03T18:34:18.817Z,8.70
2022-08-03T18:36:58.595Z,20.00
2022-08-03T18:40:03.387Z,7.90
2022-08-03T18:42:56.441Z,5.80
2022-08-03T18:45:57.810Z,8.20
2022-08-03T18:48:54.102Z,11.60
2022-08-03T18:51:46.421Z,13.40
2022-08-03T18:55:01.213Z,10.50
2022-08-03T18:58:18.826Z,8.20
2022-08-03T19:01:57.410Z,7.90
2022-08-03T19:05:04.892Z,15.20
2022-08-03T19:08:03.841Z,6.80
2022-08-03T19:14:00.270Z,11.30
2022-08-03T19:16:48.332Z,11.00
2022-08-03T19:19:44.120Z,10.10
2022-08-03T19:22:30.514Z,10.10
2022-08-03T19:25:13.935Z,10.70
2022-08-03T19:28:20.889Z,9.90
2022-08-03T19:31:14.709Z,13.40
2022-08-03T19:34:00.486Z,13.60
2022-08-03T19:36:45.250Z,10.40
2022-08-03T19:39:43.579Z,14.90
2022-08-03T19:42:34.271Z,12.10
2022-08-03T19:46:04.848Z,11.70
2022-08-03T19:48:56.051Z,14.80
2022-08-03T19:52:02.679Z,14.70
2022-08-03T19:54:54.178Z,11.50
2022-08-03T19:57:46.543Z,16.60
2022-08-03T20:00:37.052Z,14.60
2022-08-03T20:03:24.814Z,14.30
2022-08-03T20:06:12.549Z,13.50
2022-08-03T20:11:47.922Z,14.90
2022-08-03T20:14:40.017Z,23.80
2022-08-03T20:17:55.203Z,21.00
2022-08-03T20:20:39.230Z,16.60
2022-08-03T20:23:27.565Z,18.20
2022-08-03T20:26:24.188Z,19.70
2022-08-03T20:29:09.994Z,12.00
2022-08-03T20:31:59.241Z,12.10
2022-08-03T20:34:45.690Z,15.40
2022-08-03T20:37:32.898Z,13.60
2022-08-03T20:40:18.878Z,12.80
2022-08-03T20:43:02.053Z,11.70
2022-08-03T20:46:01.138Z,16.30
2022-08-03T20:48:49.017Z,8.80
2022-08-03T20:51:52.815Z,15.00
2022-08-03T20:54:40.906Z,12.30
2022-08-03T20:57:33.149Z,11.20
2022-08-03T21:00:22.028Z,13.40
2022-08-03T21:03:14.573Z,8.50
2022-08-03T21:06:06.458Z,11.70
2022-08-03T21:08:56.529Z,20.30
2022-08-03T21:11:49.169Z,12.60
2022-08-03T21:13:09.042Z,10.20
2022-08-03T21:15:09.659Z,21.30
2022-08-03T21:18:16.250Z,15.60
2022-08-03T21:21:01.212Z,13.70
2022-08-03T21:23:49.708Z,15.10
2022-08-03T21:26:39.795Z,15.30
2022-08-03T21:29:24.496Z,19.30
2022-08-03T21:32:14.070Z,26.30
2022-08-03T21:35:22.881Z,14.10
2022-08-03T21:38:20.814Z,18.00
2022-08-03T21:41:15.824Z,17.40
2022-08-03T21:44:02.817Z,14.40
2022-08-03T21:46:54.068Z,16.00
2022-08-03T21:50:05.405Z,16.70
2022-08-03T21:52:56.133Z,16.10
2022-08-03T21:55:46.800Z,22.10
2022-08-03T21:58:41.313Z,14.50
2022-08-03T22:01:39.898Z,11.60
2022-08-03T22:04:53.395Z,13.90
2022-08-03T22:07:49.723Z,11.90
2022-08-03T22:10:40.521Z,17.80
2022-08-03T22:13:43.958Z,14.20
2022-08-03T22:16:36.492Z,13.20
2022-08-03T22:19:51.288Z,10.50
2022-08-03T22:22:58.189Z,11.80
2022-08-03T22:26:01.193Z,10.20
2022-08-03T22:28:50.393Z,13.40
2022-08-03T22:31:58.566Z,10.50
2022-08-03T22:35:07.773Z,9.30
2022-08-03T22:37:54.458Z,12.40
2022-08-03T22:40:49.057Z,13.00
2022-08-03T22:43:49.923Z,9.90
2022-08-03T22:47:05.099Z,11.70
2022-08-03T22:50:32.480Z,17.80
2022-08-03T22:53:36.130Z,13.20
2022-08-03T22:56:25.054Z,14.30
2022-08-03T22:59:40.145Z,18.60
2022-08-03T23:02:27.266Z,11.10
2022-08-03T23:06:00.991Z,11.00
2022-08-03T23:08:33.401Z,13.10
2022-08-03T23:11:19.612Z,11.70
2022-08-03T23:14:33.396Z,15.20
2022-08-03T23:17:19.833Z,14.40
2022-08-03T23:20:08.490Z,13.40
2022-08-03T23:23:08.630Z,13.90
2022-08-03T23:25:52.328Z,14.80
2022-08-03T23:28:36.424Z,12.10
2022-08-03T23:31:23.324Z,9.70
2022-08-03T23:34:31.658Z,14.70
2022-08-03T23:37:18.649Z,10.30
2022-08-03T23:40:03.486Z,13.70
2022-08-03T23:42:51.846Z,12.00
2022-08-03T23:45:36.693Z,13.80
2022-08-03T23:48:22.611Z,12.30
2022-08-03T23:51:36.842Z,10.70
2022-08-03T23:54:57.557Z,11.40
2022-08-03T23:58:33.225Z,13.40
